Time;durP1;ratioP1;P1;durP2;ratioP2;P2;SDS_P1;SDS_P2;PMS_P1;PMS_P2;Temp;Humidity;BMP_temperature;BMP_pressure;BME280_temperature;BME280_humidity;BME280_pressure;Samples;Min_cycle;Max_cycle;Signal;HPM_P1;HPM_P2
2023/05/24 00:02:15;;;;;;;7.30;5.90;;;;;;;16.58;58.02;100080.14;102787;275;96923;-59
2023/05/24 00:04:52;;;;;;;6.70;5.90;;;;;;;16.51;58.02;100077.99;102889;275;119654;-59
2023/05/24 00:07:35;;;;;;;7.20;6.20;;;;;;;16.48;58.29;100076.67;102875;275;106072;-56
2023/05/24 00:10:14;;;;;;;10.30;6.50;;;;;;;16.44;58.32;100076.23;102883;275;114010;-56
2023/05/24 00:12:49;;;;;;;8.00;6.10;;;;;;;16.41;58.53;100077.23;102847;275;92749;-59
2023/05/24 00:15:26;;;;;;;8.90;6.30;;;;;;;16.36;58.62;100072.80;102909;275;97762;-58
2023/05/24 00:18:16;;;;;;;7.30;6.30;;;;;;;16.33;58.83;100071.10;102906;275;120607;-56
2023/05/24 00:21:00;;;;;;;9.80;6.40;;;;;;;16.27;58.90;100066.65;102889;275;104962;-57
2023/05/24 00:23:40;;;;;;;10.10;6.70;;;;;;;16.23;59.25;100065.45;102838;275;114745;-56
2023/05/24 00:26:29;;;;;;;7.90;5.70;;;;;;;16.20;59.44;100068.73;102689;277;94474;-56
2023/05/24 00:29:09;;;;;;;7.70;6.70;;;;;;;16.20;59.26;100071.80;102724;277;96856;-56
2023/05/24 00:31:51;;;;;;;7.40;6.30;;;;;;;16.19;59.25;100068.66;102881;275;120750;-57
2023/05/24 00:34:30;;;;;;;8.10;6.20;;;;;;;16.21;58.76;100064.52;102864;275;104506;-57
2023/05/24 00:37:11;;;;;;;10.60;6.50;;;;;;;16.24;58.31;100059.16;102860;275;113967;-56
2023/05/24 00:39:52;;;;;;;6.30;5.30;;;;;;;16.27;58.01;100059.70;102879;275;95411;-57
2023/05/24 00:42:27;;;;;;;8.00;5.80;;;;;;;16.29;57.67;100061.95;102887;264;98055;-60
2023/05/24 00:45:08;;;;;;;7.30;5.70;;;;;;;16.31;57.59;100061.23;102852;275;121130;-59
2023/05/24 00:47:47;;;;;;;7.80;6.20;;;;;;;16.29;57.75;100062.02;102876;275;106381;-58
2023/05/24 00:50:34;;;;;;;8.40;6.40;;;;;;;16.27;57.74;100064.13;102880;275;114188;-58
2023/05/24 00:53:14;;;;;;;10.20;6.90;;;;;;;16.25;57.78;100063.05;102893;275;95203;-57
2023/05/24 00:55:52;;;;;;;7.70;6.10;;;;;;;16.25;57.70;100060.27;102848;275;97767;-56
2023/05/24 00:58:29;;;;;;;9.10;6.20;;;;;;;16.25;57.58;100060.86;102890;275;120460;-58
2023/05/24 01:01:13;;;;;;;9.00;6.50;;;;;;;16.26;57.35;100056.63;102894;275;105487;-58
2023/05/24 01:03:56;;;;;;;8.30;5.80;;;;;;;16.28;57.26;100053.30;102869;275;114141;-59
2023/05/24 01:06:35;;;;;;;9.80;6.30;;;;;;;16.29;57.26;100052.07;102852;275;94352;-59
2023/05/24 01:09:34;;;;;;;6.60;5.70;;;;;;;16.26;57.31;100052.33;102863;275;96939;-59
2023/05/24 01:12:20;;;;;;;8.50;6.20;;;;;;;16.26;57.05;100055.48;102921;275;120893;-56
2023/05/24 01:15:09;;;;;;;7.80;6.30;;;;;;;16.21;57.28;100056.89;102868;275;105968;-56
2023/05/24 01:18:04;;;;;;;7.00;5.90;;;;;;;16.14;57.47;100057.36;102724;275;116163;-58
2023/05/24 01:20:43;;;;;;;9.10;6.20;;;;;;;16.07;57.66;100062.15;102868;275;93191;-58
2023/05/24 01:23:42;;;;;;;8.50;5.80;;;;;;;16.00;57.97;100062.23;102896;275;97380;-59
2023/05/24 01:26:38;;;;;;;8.30;6.10;;;;;;;15.91;58.20;100065.88;102870;275;120784;-59
2023/05/24 01:29:22;;;;;;;7.00;5.80;;;;;;;15.87;58.25;100066.30;102902;275;105127;-59
2023/05/24 01:31:59;;;;;;;9.30;6.30;;;;;;;15.86;58.05;100065.23;102826;275;114588;-59
2023/05/24 01:34:34;;;;;;;7.70;6.20;;;;;;;15.86;58.05;100067.58;102890;275;94303;-59
2023/05/24 01:37:09;;;;;;;7.20;6.30;;;;;;;15.84;58.09;100068.48;102902;264;97081;-57
2023/05/24 01:39:46;;;;;;;7.80;5.80;;;;;;;15.82;58.24;100071.52;102907;275;120610;-57
2023/05/24 01:42:34;;;;;;;9.10;6.50;;;;;;;15.78;58.43;100071.72;102855;275;105621;-56
2023/05/24 01:45:18;;;;;;;7.30;5.80;;;;;;;15.75;58.69;100073.77;102882;275;114165;-56
2023/05/24 01:48:17;;;;;;;9.10;6.80;;;;;;;15.76;58.61;100069.53;102885;275;93610;-58
2023/05/24 01:51:01;;;;;;;7.80;5.90;;;;;;;15.76;58.33;100070.11;102610;277;99759;-55
2023/05/24 01:53:46;;;;;;;8.30;5.90;;;;;;;15.77;58.42;100069.08;102850;275;120086;-57
2023/05/24 01:56:29;;;;;;;8.80;5.90;;;;;;;15.77;58.47;100072.90;102623;275;104320;-58
2023/05/24 01:59:09;;;;;;;7.30;5.80;;;;;;;15.80;58.35;100076.04;102831;275;114800;-58
2023/05/24 02:01:45;;;;;;;8.70;5.30;;;;;;;15.82;58.03;100075.64;102883;275;94343;-59
2023/05/24 02:04:22;;;;;;;9.30;5.90;;;;;;;15.82;58.05;100073.97;102850;275;97531;-60
2023/05/24 02:07:03;;;;;;;7.10;5.40;;;;;;;15.82;58.21;100074.39;102911;275;120599;-59
2023/05/24 02:09:48;;;;;;;8.10;6.00;;;;;;;15.78;58.38;100074.85;102847;275;104683;-58
2023/05/24 02:12:28;;;;;;;9.50;6.50;;;;;;;15.75;58.53;100080.05;102852;275;115773;-60
2023/05/24 02:15:10;;;;;;;12.50;6.70;;;;;;;15.74;58.47;100079.43;102890;275;94062;-60
2023/05/24 02:17:53;;;;;;;11.00;6.30;;;;;;;15.70;58.62;100069.81;102917;275;97136;-59
2023/05/24 02:20:30;;;;;;;7.10;6.00;;;;;;;15.68;58.63;100074.71;102893;275;121616;-59
2023/05/24 02:23:06;;;;;;;8.70;7.00;;;;;;;15.69;58.54;100077.58;102876;275;105449;-60
2023/05/24 02:25:42;;;;;;;8.30;6.00;;;;;;;15.68;58.54;100078.27;102817;275;114340;-59
2023/05/24 02:28:23;;;;;;;10.50;6.20;;;;;;;15.65;58.68;100079.43;102884;275;91928;-57
2023/05/24 02:31:02;;;;;;;11.40;6.90;;;;;;;15.61;58.94;100084.77;102875;275;96872;-58
2023/05/24 02:33:41;;;;;;;7.40;5.60;;;;;;;15.59;59.21;100080.61;102899;275;121206;-56
2023/05/24 02:36:22;;;;;;;7.30;6.30;;;;;;;15.56;59.12;100081.69;102874;275;104723;-61
2023/05/24 02:39:02;;;;;;;7.80;6.10;;;;;;;15.55;59.21;100085.02;102857;275;114008;-57
2023/05/24 02:41:41;;;;;;;8.10;6.20;;;;;;;15.52;59.15;100081.13;102850;275;94588;-56
2023/05/24 02:44:17;;;;;;;7.60;6.10;;;;;;;15.50;59.34;100079.64;102877;275;97496;-56
2023/05/24 02:46:57;;;;;;;10.00;6.70;;;;;;;15.49;59.43;100078.86;102880;275;120274;-58
2023/05/24 02:49:34;;;;;;;9.90;6.40;;;;;;;15.51;59.22;100073.30;102885;275;104959;-59
2023/05/24 02:52:09;;;;;;;9.40;6.30;;;;;;;15.52;59.11;100077.64;102880;275;113415;-58
2023/05/24 02:54:47;;;;;;;9.60;6.40;;;;;;;15.54;59.02;100078.79;102847;275;94624;-59
2023/05/24 02:57:24;;;;;;;9.10;6.70;;;;;;;15.55;59.06;100076.63;102918;275;97286;-57
2023/05/24 03:00:05;;;;;;;10.50;6.60;;;;;;;15.55;58.98;100079.86;102920;275;120301;-56
2023/05/24 03:02:49;;;;;;;11.20;7.20;;;;;;;15.54;59.05;100078.79;102881;275;105727;-56
2023/05/24 03:05:30;;;;;;;8.90;6.70;;;;;;;15.54;59.17;100083.85;102874;275;114506;-56
2023/05/24 03:08:07;;;;;;;11.70;6.70;;;;;;;15.53;59.46;100086.21;102897;275;93555;-59
2023/05/24 03:10:46;;;;;;;9.30;6.60;;;;;;;15.53;59.76;100086.80;102830;275;97758;-58
2023/05/24 03:13:35;;;;;;;10.20;6.50;;;;;;;15.51;59.95;100086.37;102758;276;120259;-59
2023/05/24 03:16:17;;;;;;;9.00;6.20;;;;;;;15.49;59.93;100085.44;102840;276;103464;-56
2023/05/24 03:18:55;;;;;;;10.90;6.90;;;;;;;15.49;60.02;100084.48;102828;265;113649;-56
2023/05/24 03:21:35;;;;;;;9.90;7.20;;;;;;;15.51;60.12;100090.19;102850;276;94387;-59
2023/05/24 03:24:19;;;;;;;11.20;6.50;;;;;;;15.54;59.90;100092.06;102835;276;97462;-57
2023/05/24 03:26:54;;;;;;;9.50;6.20;;;;;;;15.59;59.76;100091.23;102820;276;121095;-60
2023/05/24 03:29:29;;;;;;;8.90;6.20;;;;;;;15.59;60.33;100097.46;102764;276;104821;-60
2023/05/24 03:32:05;;;;;;;7.90;6.50;;;;;;;15.63;60.55;100098.48;102638;276;114408;-56
2023/05/24 03:34:43;;;;;;;8.20;6.80;;;;;;;15.69;60.59;100099.04;102755;276;96854;-56
2023/05/24 03:37:22;;;;;;;9.90;6.40;;;;;;;15.75;60.77;100097.86;102758;276;96597;-59
2023/05/24 03:40:01;;;;;;;8.30;6.70;;;;;;;15.85;60.69;100098.40;102711;276;119494;-59
2023/05/24 03:42:39;;;;;;;8.90;6.70;;;;;;;15.94;60.60;100092.52;102744;276;105285;-58
2023/05/24 03:45:14;;;;;;;10.40;7.10;;;;;;;15.98;61.05;100096.84;102736;276;114830;-59
2023/05/24 03:47:49;;;;;;;8.80;6.50;;;;;;;16.02;61.22;100098.23;102758;276;94651;-59
2023/05/24 03:50:29;;;;;;;8.80;6.50;;;;;;;16.05;61.39;100101.03;102804;276;97444;-59
2023/05/24 03:53:11;;;;;;;8.50;6.50;;;;;;;16.43;61.82;100100.29;102788;276;120838;-57
2023/05/24 03:55:56;;;;;;;7.70;5.90;;;;;;;16.73;61.54;100101.44;102775;276;104697;-54
2023/05/24 03:58:41;;;;;;;8.80;6.40;;;;;;;16.82;61.61;100107.57;102754;276;114760;-59
2023/05/24 04:01:22;;;;;;;9.50;6.80;;;;;;;16.67;61.85;100109.32;102743;276;94705;-59
2023/05/24 04:04:03;;;;;;;9.30;6.40;;;;;;;16.59;61.98;100113.54;102739;276;97349;-58
2023/05/24 04:06:42;;;;;;;7.40;6.00;;;;;;;16.45;62.30;100110.55;102776;276;120465;-59
2023/05/24 04:09:19;;;;;;;11.00;6.80;;;;;;;16.43;62.57;100113.95;102557;278;106144;-58
2023/05/24 04:12:00;;;;;;;10.60;6.60;;;;;;;16.49;62.98;100112.52;102750;276;113810;-60
2023/05/24 04:14:37;;;;;;;11.10;6.60;;;;;;;16.49;63.09;100110.21;102751;264;97260;-60
2023/05/24 04:17:14;;;;;;;8.30;6.90;;;;;;;16.57;62.81;100111.66;102742;276;96525;-55
2023/05/24 04:19:58;;;;;;;9.30;6.60;;;;;;;16.68;63.01;100114.37;102730;276;122069;-56
2023/05/24 04:22:35;;;;;;;10.20;6.80;;;;;;;16.84;63.06;100122.33;102783;276;105216;-55
2023/05/24 04:25:12;;;;;;;9.80;6.90;;;;;;;17.00;63.10;100125.55;102731;276;115006;-56
2023/05/24 04:27:49;;;;;;;11.70;7.10;;;;;;;17.14;62.74;100128.88;102750;276;92104;-58
2023/05/24 04:30:31;;;;;;;12.40;6.60;;;;;;;17.33;61.75;100130.61;102759;276;96758;-58
2023/05/24 04:33:11;;;;;;;12.00;7.10;;;;;;;17.60;60.89;100132.65;102754;276;119507;-59
2023/05/24 04:35:48;;;;;;;12.10;8.00;;;;;;;17.80;60.01;100131.05;102758;276;106505;-59
2023/05/24 04:38:31;;;;;;;10.70;7.10;;;;;;;18.04;59.38;100136.55;102786;276;113694;-58
2023/05/24 04:41:07;;;;;;;;;;;;;;;18.31;58.50;100137.48;102708;277;94956;-57
2023/05/24 04:43:41;;;;;;;11.10;6.90;;;;;;;18.56;57.98;100133.80;102815;276;97578;-60
2023/05/24 04:46:16;;;;;;;;;;;;;;;18.99;57.29;100131.77;102769;276;120002;-60
2023/05/24 04:49:02;;;;;;;12.10;6.50;;;;;;;19.29;56.57;100128.77;102763;276;105879;-59
2023/05/24 04:51:37;;;;;;;13.50;6.20;;;;;;;19.66;56.07;100134.27;102762;276;115354;-56
2023/05/24 04:54:13;;;;;;;9.80;5.90;;;;;;;19.75;55.43;100135.27;102801;276;91898;-56
2023/05/24 04:56:48;;;;;;;12.20;6.60;;;;;;;19.74;54.85;100139.80;102776;276;97114;-61
2023/05/24 04:59:24;;;;;;;10.90;6.50;;;;;;;19.71;54.49;100140.42;102775;276;119865;-60
2023/05/24 05:02:00;;;;;;;9.50;5.90;;;;;;;19.70;54.35;100145.05;102778;276;105971;-55
2023/05/24 05:04:37;;;;;;;10.20;5.90;;;;;;;19.79;53.83;100145.74;102740;276;113366;-55
2023/05/24 05:07:19;;;;;;;9.30;6.40;;;;;;;20.08;53.20;100149.18;102771;276;94137;-59
2023/05/24 05:09:57;;;;;;;8.20;5.60;;;;;;;20.25;52.39;100151.20;102759;276;98520;-58
2023/05/24 05:12:34;;;;;;;7.60;5.40;;;;;;;20.89;52.58;100147.52;102729;276;119108;-56
2023/05/24 05:15:11;;;;;;;10.00;5.70;;;;;;;21.83;51.08;100147.30;102773;276;105380;-56
2023/05/24 05:17:46;;;;;;;10.40;5.90;;;;;;;23.54;50.04;100146.30;102759;276;113613;-60
2023/05/24 05:20:24;;;;;;;8.50;6.10;;;;;;;25.01;48.41;100145.21;102747;276;94813;-59
2023/05/24 05:23:02;;;;;;;9.70;6.10;;;;;;;26.92;46.23;100143.06;102773;276;98445;-56
2023/05/24 05:25:42;;;;;;;12.60;6.20;;;;;;;28.40;43.79;100147.85;102739;276;120798;-57
2023/05/24 05:28:21;;;;;;;8.60;5.60;;;;;;;29.71;41.43;100145.64;102815;276;104069;-56
2023/05/24 05:31:04;;;;;;;6.20;5.40;;;;;;;29.70;39.58;100153.05;102806;276;113924;-57
2023/05/24 05:33:45;;;;;;;7.70;5.30;;;;;;;30.24;38.53;100147.34;102796;276;94599;-60
2023/05/24 05:36:22;;;;;;;7.70;5.30;;;;;;;31.08;36.35;100149.80;102802;276;98618;-58
2023/05/24 05:39:00;;;;;;;10.80;5.20;;;;;;;30.09;35.42;100150.13;102812;276;120286;-59
2023/05/24 05:41:47;;;;;;;9.20;5.00;;;;;;;28.89;35.66;100159.79;102821;276;106324;-59
2023/05/24 05:44:27;;;;;;;5.80;4.60;;;;;;;28.35;35.58;100161.08;102786;276;114282;-59
2023/05/24 05:47:09;;;;;;;6.10;5.50;;;;;;;28.45;35.56;100156.75;102742;276;94899;-57
2023/05/24 05:49:55;;;;;;;6.80;4.60;;;;;;;28.63;35.90;100156.73;102145;276;625120;-59
2023/05/24 05:52:35;;;;;;;7.10;5.30;;;;;;;30.24;34.03;100158.89;102792;276;121776;-60
2023/05/24 05:55:12;;;;;;;7.80;4.50;;;;;;;31.44;32.75;100154.89;102788;276;106404;-59
2023/05/24 05:57:54;;;;;;;5.60;4.50;;;;;;;31.92;31.39;100156.39;102757;276;112401;-59
2023/05/24 06:00:35;;;;;;;5.30;4.20;;;;;;;32.89;30.46;100162.09;102724;276;94684;-60
2023/05/24 06:03:10;;;;;;;6.00;4.80;;;;;;;33.71;29.62;100162.95;102734;276;97213;-60
2023/05/24 06:05:49;;;;;;;7.50;4.70;;;;;;;34.25;28.71;100164.27;102808;276;119772;-61
2023/05/24 06:08:33;;;;;;;7.00;4.70;;;;;;;34.71;28.29;100167.48;102762;276;106510;-56
2023/05/24 06:11:18;;;;;;;7.80;4.70;;;;;;;35.36;27.17;100167.61;102776;276;114369;-59
2023/05/24 06:13:53;;;;;;;6.40;4.60;;;;;;;35.68;26.89;100166.49;102728;276;94263;-60
2023/05/24 06:16:31;;;;;;;6.60;4.40;;;;;;;35.86;26.82;100168.84;102804;276;96615;-56
2023/05/24 06:19:07;;;;;;;5.90;4.60;;;;;;;35.21;26.90;100167.84;102812;276;120966;-56
2023/05/24 06:21:46;;;;;;;7.60;4.80;;;;;;;35.90;26.25;100172.09;102775;276;105379;-57
2023/05/24 06:24:27;;;;;;;7.00;4.50;;;;;;;36.60;24.93;100175.64;102616;276;116228;-57
2023/05/24 06:27:10;;;;;;;7.50;4.90;;;;;;;36.59;24.29;100180.91;102803;276;95174;-61
2023/05/24 06:29:49;;;;;;;7.10;4.50;;;;;;;35.85;24.19;100180.97;102798;276;97283;-60
2023/05/24 06:32:30;;;;;;;5.80;4.30;;;;;;;35.66;24.80;100186.17;102811;276;120942;-56
2023/05/24 06:35:05;;;;;;;5.70;4.20;;;;;;;35.65;25.23;100190.14;102762;276;105498;-57
2023/05/24 06:37:47;;;;;;;8.10;5.80;;;;;;;35.15;25.15;100193.80;102787;276;115230;-58
2023/05/24 06:40:28;;;;;;;8.60;4.70;;;;;;;33.64;24.68;100207.22;102758;276;95246;-57
2023/05/24 06:43:16;;;;;;;7.50;4.20;;;;;;;32.50;25.00;100206.02;102757;276;97352;-58
2023/05/24 06:45:57;;;;;;;6.80;4.80;;;;;;;31.27;25.73;100214.60;102803;276;120605;-57
2023/05/24 06:48:32;;;;;;;7.60;4.80;;;;;;;30.56;26.21;100218.12;102859;276;105287;-57
2023/05/24 06:51:16;;;;;;;6.80;4.60;;;;;;;30.30;26.62;100222.20;102828;276;114470;-59
2023/05/24 06:53:55;;;;;;;5.90;4.20;;;;;;;29.86;27.29;100228.67;102796;276;95638;-60
2023/05/24 06:56:32;;;;;;;7.40;5.10;;;;;;;29.66;28.13;100226.54;102864;276;96974;-59
2023/05/24 06:59:10;;;;;;;7.40;4.40;;;;;;;30.12;28.38;100227.21;102830;276;119935;-60
2023/05/24 07:01:52;;;;;;;9.10;5.20;;;;;;;29.82;28.63;100227.52;102866;276;105701;-60
2023/05/24 07:04:28;;;;;;;6.90;4.70;;;;;;;29.97;28.67;100230.33;102856;276;113850;-61
2023/05/24 07:07:12;;;;;;;5.60;4.70;;;;;;;31.46;28.87;100228.81;102859;276;92674;-57
2023/05/24 07:09:51;;;;;;;7.00;4.70;;;;;;;32.62;28.34;100228.20;102889;276;97643;-60
2023/05/24 07:12:28;;;;;;;5.60;4.90;;;;;;;32.36;27.63;100227.02;102863;276;118634;-62
2023/05/24 07:15:03;;;;;;;7.90;4.70;;;;;;;31.84;27.39;100229.02;102720;277;104669;-59
2023/05/24 07:17:42;;;;;;;8.20;4.40;;;;;;;32.83;26.76;100231.14;102889;276;113950;-63
2023/05/24 07:20:18;;;;;;;8.30;4.60;;;;;;;34.04;26.27;100233.75;102807;276;94330;-63
2023/05/24 07:23:00;;;;;;;6.70;4.40;;;;;;;34.33;25.75;100236.41;102868;276;97775;-62
2023/05/24 07:25:39;;;;;;;6.70;4.50;;;;;;;33.27;25.90;100237.17;102855;276;120016;-62
2023/05/24 07:28:20;;;;;;;8.50;4.40;;;;;;;32.32;26.27;100238.92;102798;276;105187;-58
2023/05/24 07:31:06;;;;;;;7.00;4.40;;;;;;;32.06;26.71;100246.08;102829;276;115504;-60
2023/05/24 07:33:41;;;;;;;11.00;4.70;;;;;;;31.28;26.82;100258.27;102815;276;94428;-63
2023/05/24 07:36:24;;;;;;;5.80;4.40;;;;;;;31.69;27.34;100259.63;102838;276;97980;-61
2023/05/24 07:39:05;;;;;;;8.90;4.70;;;;;;;31.52;26.92;100262.42;102805;276;120270;-61
2023/05/24 07:41:42;;;;;;;6.80;4.80;;;;;;;31.29;27.69;100268.05;102869;276;105346;-64
2023/05/24 07:44:20;;;;;;;9.00;4.90;;;;;;;31.89;27.63;100266.19;102815;276;114918;-63
2023/05/24 07:47:02;;;;;;;8.20;4.40;;;;;;;32.29;28.00;100264.48;102818;264;93645;-64
2023/05/24 07:49:45;;;;;;;5.60;4.40;;;;;;;32.80;27.63;100266.95;102855;276;97558;-63
2023/05/24 07:52:25;;;;;;;7.60;4.90;;;;;;;32.03;27.30;100271.42;102849;276;120141;-61
2023/05/24 07:55:04;;;;;;;5.30;4.70;;;;;;;31.35;28.00;100271.04;102827;276;104597;-61
2023/05/24 07:57:39;;;;;;;5.90;4.60;;;;;;;31.91;28.30;100272.64;102838;276;114118;-61
2023/05/24 08:00:15;;;;;;;8.50;4.50;;;;;;;32.36;28.32;100274.81;102839;276;93701;-61
2023/05/24 08:02:49;;;;;;;8.30;4.30;;;;;;;33.06;28.07;100270.20;102861;276;97490;-63
2023/05/24 08:05:28;;;;;;;7.00;4.40;;;;;;;33.49;27.58;100272.09;102541;276;120340;-61
2023/05/24 08:08:06;;;;;;;6.00;4.40;;;;;;;33.12;27.13;100271.97;102846;276;104949;-60
2023/05/24 08:10:52;;;;;;;5.90;4.10;;;;;;;33.46;26.56;100270.98;102843;276;112820;-59
2023/05/24 08:13:39;;;;;;;7.50;4.30;;;;;;;33.78;26.82;100280.04;102822;276;92949;-63
2023/05/24 08:16:19;;;;;;;11.30;4.00;;;;;;;33.23;26.83;100281.03;102775;276;97901;-60
2023/05/24 08:19:03;;;;;;;5.80;4.20;;;;;;;32.94;26.83;100284.77;102796;276;121119;-60
2023/05/24 08:21:45;;;;;;;5.10;4.50;;;;;;;32.35;26.53;100284.84;102762;276;105513;-64
2023/05/24 08:24:21;;;;;;;5.10;4.20;;;;;;;31.80;26.94;100287.60;102789;276;112767;-63
2023/05/24 08:27:01;;;;;;;4.70;4.10;;;;;;;31.87;27.65;100290.62;102821;276;93945;-62
2023/05/24 08:29:39;;;;;;;6.90;4.10;;;;;;;32.76;27.38;100284.70;102762;276;96371;-62
2023/05/24 08:32:14;;;;;;;9.70;4.50;;;;;;;32.92;26.61;100286.06;102737;264;120850;-61
2023/05/24 08:35:00;;;;;;;7.20;4.30;;;;;;;32.27;25.97;100288.67;102767;276;106270;-60
2023/05/24 08:37:44;;;;;;;5.50;4.10;;;;;;;31.74;27.35;100290.92;102746;276;114700;-61
2023/05/24 08:40:25;;;;;;;5.70;4.20;;;;;;;32.09;28.07;100289.44;102726;276;92800;-60
2023/05/24 08:43:10;;;;;;;8.40;4.80;;;;;;;32.13;27.21;100286.80;102775;276;97116;-60
2023/05/24 08:45:54;;;;;;;7.40;4.30;;;;;;;31.68;27.75;100288.53;102787;276;121260;-59
2023/05/24 08:48:33;;;;;;;10.50;4.70;;;;;;;31.68;27.54;100285.38;102789;276;103839;-60
2023/05/24 08:51:12;;;;;;;7.80;4.20;;;;;;;31.49;27.54;100290.70;102784;276;114783;-60
2023/05/24 08:53:49;;;;;;;5.20;4.40;;;;;;;31.92;28.00;100293.01;102797;276;94014;-63
2023/05/24 08:56:29;;;;;;;5.30;4.20;;;;;;;31.98;28.41;100295.52;102804;276;96613;-63
2023/05/24 08:59:12;;;;;;;6.70;4.20;;;;;;;31.42;28.49;100301.77;102760;276;121188;-60
2023/05/24 09:01:55;;;;;;;7.10;4.30;;;;;;;30.77;28.97;100299.66;102779;276;105141;-62
2023/05/24 09:04:43;;;;;;;6.30;4.50;;;;;;;30.21;29.39;100308.85;102720;276;113589;-62
2023/05/24 09:07:22;;;;;;;6.80;4.30;;;;;;;29.90;29.68;100311.53;102747;276;94618;-61
2023/05/24 09:10:05;;;;;;;8.20;4.50;;;;;;;29.96;29.77;100312.42;102759;276;98124;-62
2023/05/24 09:12:48;;;;;;;6.40;4.30;;;;;;;30.01;29.65;100316.92;102765;276;120943;-60
2023/05/24 09:15:21;;;;;;;;;;;;;;;29.91;30.36;100318.94;102778;276;105273;-60
2023/05/24 09:18:04;;;;;;;5.70;4.60;;;;;;;29.59;30.11;100316.27;102815;276;113973;-59
2023/05/24 09:20:43;;;;;;;6.70;4.50;;;;;;;29.50;30.83;100319.85;102757;276;94050;-62
2023/05/24 09:23:25;;;;;;;6.30;4.40;;;;;;;29.31;30.83;100324.86;102793;276;97139;-63
2023/05/24 09:26:09;;;;;;;7.20;5.40;;;;;;;29.00;30.65;100323.60;102756;276;120164;-63
2023/05/24 09:28:47;;;;;;;9.50;5.00;;;;;;;28.65;31.11;100332.02;102557;278;104652;-62
2023/05/24 09:31:34;;;;;;;8.70;5.10;;;;;;;28.33;32.06;100327.62;102749;276;114740;-62
2023/05/24 09:34:17;;;;;;;8.40;4.60;;;;;;;28.19;32.38;100332.90;102745;276;93210;-63
2023/05/24 09:36:57;;;;;;;8.70;4.60;;;;;;;28.01;32.74;100339.38;102789;276;96289;-62
2023/05/24 09:39:38;;;;;;;13.80;6.10;;;;;;;27.76;32.76;100345.81;102758;276;120352;-60
2023/05/24 09:42:19;;;;;;;7.10;4.90;;;;;;;27.54;33.67;100347.42;102753;276;106038;-61
2023/05/24 09:45:07;;;;;;;9.30;5.10;;;;;;;27.27;33.96;100344.38;102760;276;114066;-61
2023/05/24 09:47:47;;;;;;;9.30;5.20;;;;;;;27.17;34.72;100346.09;102751;276;93241;-61
2023/05/24 09:50:31;;;;;;;7.10;4.90;;;;;;;27.06;35.42;100349.45;102782;276;95462;-61
2023/05/24 09:53:07;;;;;;;10.00;5.80;;;;;;;27.01;36.27;100347.11;102803;276;118216;-60
2023/05/24 09:55:47;;;;;;;11.40;5.70;;;;;;;27.00;36.37;100348.72;102786;276;104675;-57
2023/05/24 09:58:29;;;;;;;7.10;5.40;;;;;;;27.13;36.59;100350.14;102776;276;114222;-61
2023/05/24 10:01:17;;;;;;;8.80;5.10;;;;;;;27.02;36.62;100353.30;102785;276;93050;-60
2023/05/24 10:04:09;;;;;;;8.40;5.30;;;;;;;26.95;36.89;100354.38;102810;276;98740;-61
2023/05/24 10:06:58;;;;;;;7.50;5.90;;;;;;;26.91;36.99;100352.22;102811;276;121427;-57
2023/05/24 10:09:38;;;;;;;9.00;5.50;;;;;;;26.89;37.32;100353.58;102757;276;105899;-57
2023/05/24 10:12:24;;;;;;;7.90;5.50;;;;;;;26.90;37.46;100354.19;102784;276;114668;-61
2023/05/24 10:15:01;;;;;;;9.10;5.60;;;;;;;26.74;37.92;100364.73;102769;276;93703;-60
2023/05/24 10:17:39;;;;;;;6.70;5.60;;;;;;;26.61;37.89;100369.83;102779;276;96880;-57
2023/05/24 10:20:14;;;;;;;8.60;5.50;;;;;;;26.58;37.67;100368.33;102730;276;119331;-57
2023/05/24 10:23:01;;;;;;;9.80;5.90;;;;;;;26.60;37.85;100368.13;102641;278;108493;-60
2023/05/24 10:25:48;;;;;;;7.00;5.70;;;;;;;26.49;37.96;100368.15;102769;276;113608;-58
2023/05/24 10:28:24;;;;;;;8.80;5.90;;;;;;;26.30;37.80;100365.39;102695;276;96828;-61
2023/05/24 10:31:09;;;;;;;9.10;6.00;;;;;;;26.26;38.30;100364.91;102879;276;96143;-63
2023/05/24 10:33:53;;;;;;;6.20;5.20;;;;;;;26.28;38.62;100369.66;102781;276;120107;-60
2023/05/24 10:36:40;;;;;;;9.20;6.40;;;;;;;26.41;38.90;100370.52;102794;276;105475;-61
2023/05/24 10:39:25;;;;;;;8.20;5.40;;;;;;;26.60;38.63;100365.52;102773;276;114489;-61
2023/05/24 10:42:05;;;;;;;8.80;5.70;;;;;;;26.72;38.57;100363.48;102741;276;94023;-63
2023/05/24 10:44:42;;;;;;;8.00;6.00;;;;;;;26.90;38.41;100362.77;102776;276;96088;-62
2023/05/24 10:47:20;;;;;;;9.60;5.10;;;;;;;27.05;38.47;100363.30;102782;276;118701;-63
2023/05/24 10:50:03;;;;;;;10.00;5.00;;;;;;;27.09;38.58;100362.17;102543;276;104118;-63
2023/05/24 10:52:40;;;;;;;10.00;5.60;;;;;;;27.18;38.07;100369.92;102813;276;114492;-60
2023/05/24 10:55:16;;;;;;;6.70;4.70;;;;;;;27.10;38.05;100371.54;102838;276;95196;-60
2023/05/24 10:57:55;;;;;;;8.00;5.60;;;;;;;26.93;38.29;100374.60;102829;276;97801;-62
2023/05/24 11:00:41;;;;;;;7.60;5.80;;;;;;;26.92;38.33;100371.52;102878;276;121481;-61
2023/05/24 11:03:24;;;;;;;7.40;5.50;;;;;;;27.03;38.28;100376.11;102859;276;104936;-60
2023/05/24 11:06:01;;;;;;;7.00;4.60;;;;;;;27.07;38.01;100377.90;102832;276;114916;-60
2023/05/24 11:08:42;;;;;;;12.60;6.10;;;;;;;27.13;38.08;100380.98;102827;276;94195;-62
2023/05/24 11:11:28;;;;;;;7.70;5.50;;;;;;;27.22;37.53;100383.52;102842;276;98442;-59
2023/05/24 11:14:13;;;;;;;7.20;5.20;;;;;;;27.21;38.04;100384.64;102847;276;120239;-60
2023/05/24 11:16:53;;;;;;;7.80;5.10;;;;;;;27.31;38.10;100386.09;102820;276;104592;-59
2023/05/24 11:19:36;;;;;;;7.70;5.20;;;;;;;27.37;38.07;100385.61;102820;276;115063;-59
2023/05/24 11:22:19;;;;;;;10.20;5.90;;;;;;;27.47;37.94;100384.44;102845;276;94391;-60
2023/05/24 11:25:01;;;;;;;9.20;5.60;;;;;;;27.44;37.49;100387.19;102872;276;97495;-60
2023/05/24 11:27:49;;;;;;;7.80;4.80;;;;;;;27.45;37.47;100388.29;102850;276;119483;-62
2023/05/24 11:30:31;;;;;;;9.00;5.20;;;;;;;27.49;37.51;100387.41;102823;276;105064;-62
2023/05/24 11:33:17;;;;;;;9.90;5.70;;;;;;;27.45;37.74;100389.80;102801;276;114444;-61
2023/05/24 11:35:58;;;;;;;8.30;5.30;;;;;;;27.36;37.88;100389.47;102842;276;93690;-61
2023/05/24 11:38:45;;;;;;;8.50;5.20;;;;;;;27.35;37.77;100390.48;102851;276;97844;-60
2023/05/24 11:41:24;;;;;;;9.20;5.00;;;;;;;27.44;37.77;100389.20;102824;276;119569;-60
2023/05/24 11:44:04;;;;;;;7.40;5.30;;;;;;;27.43;38.12;100392.15;102856;276;106023;-60
2023/05/24 11:46:46;;;;;;;12.30;6.30;;;;;;;27.40;37.96;100387.09;102790;276;114173;-61
2023/05/24 11:49:26;;;;;;;7.20;5.40;;;;;;;27.21;37.94;100384.19;102794;276;94809;-60
2023/05/24 11:52:08;;;;;;;7.30;5.40;;;;;;;27.19;38.39;100380.73;102794;276;98340;-60
2023/05/24 11:54:49;;;;;;;8.30;5.40;;;;;;;27.14;38.38;100379.80;102785;276;120737;-61
2023/05/24 11:57:39;;;;;;;10.30;5.60;;;;;;;27.08;38.53;100383.71;102811;276;104268;-61
2023/05/24 12:00:25;;;;;;;10.20;6.20;;;;;;;27.08;38.49;100387.98;102784;276;113005;-61
2023/05/24 12:03:06;;;;;;;8.60;5.80;;;;;;;26.99;38.54;100386.05;102772;276;94958;-62
2023/05/24 12:05:45;;;;;;;;;;;;;;;26.86;38.73;100389.02;102777;276;97096;-62
2023/05/24 12:08:20;;;;;;;10.90;5.50;;;;;;;26.80;39.54;100393.90;102784;276;121276;-60
2023/05/24 12:11:04;;;;;;;8.80;5.80;;;;;;;26.99;39.43;100387.50;102777;276;105083;-61
2023/05/24 12:13:42;;;;;;;;;;;;;;;27.31;39.67;100387.10;102730;276;114776;-62
2023/05/24 12:16:21;;;;;;;6.00;5.10;;;;;;;27.67;39.47;100385.90;102732;276;95190;-63
2023/05/24 12:19:03;;;;;;;6.70;5.10;;;;;;;28.03;39.26;100382.13;102759;276;97380;-63
2023/05/24 12:21:42;;;;;;;8.10;5.70;;;;;;;28.32;38.67;100377.59;102744;276;121050;-61